Shakerag, Illinois
Current Conditions -  °F | °C
As of 11:30 PM on Wednesday 17 Dec 2014 (Local Time) from KMWA Reporting Station
Overcast Overcast  
Wind Chill: 32°   Ceiling: 10000
Heat Index: 32°   Visibility: 10mi
Dew Point: 28°   Wind: 3mph
Humidity: 87%   Direction: 50°NE
Pressure: 30.32"   Gusts: NA
Location:  37.8335°N, 88.8867°W
Report Text: KMWA 180530Z AUTO 05003KT 10SM OVC100 00/M02 A3032 RMK AO2
Loading
Personal Weather Stations






























Interactive Weather Map New forecast layout! Learn more

10-Day Weather Forecast

Advertisements
Track Severe Weather on mobile